CheckWX is a tool to help pilots better visualize weather data.  It is not intended as a substitute for an official pre-flight weather briefing.

21:08:14 UTC

KORD METAR
Chicago O'hare International Airport
Chicago, Illinois, USA
Current

17 mins ago

KORD 182051Z 01005KT 10SM BKN033 M02/M09 A3039 RMK AO2 SNB02E12 SLP300 PRESENT WX VCSH P0000 60000 T10171089 52019 $
Observed
Feb-18 @ 20:51 UTC
Wind
  • 010° at 5 KTS
Visibility
10 SM
Flight Rules
VFR
Cloud Levels
  • Broken at 3,300' AGL
Temperature
-2°C / 28°F
Dewpoint
-9°C / 16°F
Humidity
59%
Altimeter
30.39" Hg
Pressure
1030 hPa
Current Rain
0.01"
Previous

1 hour ago

KORD 181951Z 00000KT 10SM BKN033 M01/M09 A3037 RMK AO2 SLP294 T10111089 $
Observed
Feb-18 @ 19:51 UTC
Visibility
10 SM
Flight Rules
VFR
Cloud Levels
  • Broken at 3,300' AGL
Temperature
-1°C / 30°F
Dewpoint
-9°C / 16°F
Humidity
55%
Altimeter
30.37" Hg
Pressure
1029.4 hPa
Previous

2 hours ago

KORD 181851Z 36009KT 10SM SCT022 BKN030 M03/M08 A3035 RMK AO2 SLP288 T10281083 $
Observed
Feb-18 @ 18:51 UTC
Wind
  • 360° at 9 KTS
Visibility
10 SM
Flight Rules
MVFR
Cloud Levels
  • Scattered at 2,200' AGL
  • Broken at 3,000' AGL
Temperature
-3°C / 27°F
Dewpoint
-8°C / 18°F
Humidity
69%
Altimeter
30.35" Hg
Pressure
1028.8 hPa